Time;durP1;ratioP1;P1;durP2;ratioP2;P2;SDS_P1;SDS_P2;PMS_P1;PMS_P2;Temp;Humidity;BMP_temperature;BMP_pressure;BME280_temperature;BME280_humidity;BME280_pressure;Samples;Min_cycle;Max_cycle;Signal;HPM_P1;HPM_P2
2022/01/03 00:01:39;;;;;;;11.55;2.05;;;7.50;99.90;;;;;;4986984;28;20089;-88
2022/01/03 00:04:07;;;;;;;7.57;2.22;;;7.70;99.90;;;;;;4970287;28;20050;-89
2022/01/03 00:10:15;;;;;;;12.00;2.25;;;8.90;99.90;;;;;;4985240;28;20041;-88
2022/01/03 00:12:47;;;;;;;20.58;2.63;;;7.80;99.90;;;;;;4962933;28;20116;-87
2022/01/03 00:15:19;;;;;;;13.52;2.55;;;9.40;99.90;;;;;;4967606;28;20061;-87
2022/01/03 00:18:01;;;;;;;9.93;2.13;;;7.80;99.90;;;;;;4974096;28;20072;-86
2022/01/03 00:20:27;;;;;;;11.80;2.78;;;7.70;99.90;;;;;;4968868;28;20054;-88
2022/01/03 00:23:42;;;;;;;14.68;2.72;;;7.80;99.90;;;;;;4969974;28;20051;-86
2022/01/03 00:28:57;;;;;;;14.35;2.92;;;7.90;99.90;;;;;;5056761;23;20069;-87
2022/01/03 00:31:39;;;;;;;12.85;2.72;;;7.90;99.90;;;;;;4998821;28;20054;-89
2022/01/03 00:34:07;;;;;;;15.63;2.78;;;7.90;99.90;;;;;;4998093;28;20121;-87
2022/01/03 00:36:37;;;;;;;17.35;2.67;;;7.90;99.90;;;;;;4991238;28;20054;-87
2022/01/03 00:39:07;;;;;;;14.98;3.15;;;8.80;99.90;;;;;;5004256;28;20132;-87
2022/01/03 00:41:33;;;;;;;17.92;3.33;;;7.90;99.90;;;;;;5022667;28;20049;-88
2022/01/03 00:44:01;;;;;;;21.17;2.85;;;8.00;99.90;;;;;;5007627;28;20052;-87
2022/01/03 00:46:32;;;;;;;21.73;3.78;;;8.00;99.90;;;;;;5134264;23;20578;-86
2022/01/03 00:49:03;;;;;;;17.35;2.92;;;8.00;99.90;;;;;;4981958;28;20557;-87
2022/01/03 00:51:33;;;;;;;14.20;3.55;;;8.10;99.90;;;;;;4986534;28;20053;-87
2022/01/03 00:53:59;;;;;;;19.17;3.20;;;8.10;99.90;;;;;;4983891;28;20049;-86
2022/01/03 00:56:29;;;;;;;;;;;8.10;99.90;;;;;;4982530;28;20038;-86
2022/01/03 00:59:11;;;;;;;23.02;3.67;;;8.10;99.90;;;;;;4990301;28;19922;-87
2022/01/03 01:01:43;;;;;;;14.50;3.47;;;8.10;99.90;;;;;;4985352;28;20050;-87
2022/01/03 01:04:17;;;;;;;23.90;4.22;;;8.10;99.90;;;;;;4986218;28;20371;-88
2022/01/03 01:06:42;;;;;;;19.30;2.95;;;8.20;99.90;;;;;;4984998;28;20042;-87
2022/01/03 01:09:11;;;;;;;;;;;8.20;99.90;;;;;;4986154;28;20393;-87
2022/01/03 01:11:41;;;;;;;22.60;3.70;;;8.20;99.90;;;;;;5002952;28;20112;-87
2022/01/03 01:14:07;;;;;;;14.75;3.10;;;8.40;99.90;;;;;;5003003;28;20053;-87
2022/01/03 01:16:36;;;;;;;;;;;8.40;99.90;;;;;;4983454;28;20042;-86
2022/01/03 01:19:03;;;;;;;16.52;2.53;;;8.40;99.90;;;;;;4980094;28;19997;-88
2022/01/03 01:21:33;;;;;;;19.42;2.90;;;8.40;99.90;;;;;;4987323;28;20092;-88
2022/01/03 01:23:59;;;;;;;19.08;3.75;;;8.40;99.90;;;;;;4983394;28;20052;-88
2022/01/03 01:29:13;;;;;;;21.23;4.03;;;8.50;99.90;;;;;;4981948;28;20493;-86
2022/01/03 01:31:45;;;;;;;31.15;4.13;;;9.10;99.90;;;;;;4984027;28;20067;-87
2022/01/03 01:34:22;;;;;;;12.07;2.50;;;8.50;99.90;;;;;;4985975;28;20042;-87
2022/01/03 01:36:52;;;;;;;16.98;3.47;;;8.50;99.90;;;;;;4986598;28;20406;-86
2022/01/03 01:39:21;;;;;;;18.10;2.97;;;8.90;99.90;;;;;;4988818;28;20453;-85
2022/01/03 01:41:47;;;;;;;14.68;2.67;;;8.40;99.90;;;;;;4983475;28;20131;-87
2022/01/03 01:44:14;;;;;;;16.65;3.45;;;8.40;99.90;;;;;;4996340;28;20545;-89
2022/01/03 01:46:46;;;;;;;21.95;3.75;;;8.30;99.90;;;;;;4981947;28;20084;-89
2022/01/03 01:49:17;;;;;;;19.67;3.28;;;8.30;99.90;;;;;;4979009;28;20042;-86
2022/01/03 01:51:49;;;;;;;17.95;3.50;;;8.30;99.90;;;;;;4986078;28;20041;-87
2022/01/03 01:54:32;;;;;;;22.35;3.05;;;8.40;99.90;;;;;;4983720;28;20517;-88
2022/01/03 01:57:07;;;;;;;17.40;2.63;;;8.30;99.90;;;;;;4986604;28;20100;-87
2022/01/03 01:59:55;;;;;;;18.52;3.53;;;8.20;99.90;;;;;;4985793;28;20482;-86
2022/01/03 02:02:32;;;;;;;17.80;3.33;;;8.20;99.90;;;;;;4986662;28;20045;-86
2022/01/03 02:05:24;;;;;;;19.23;3.33;;;8.20;99.90;;;;;;4984762;28;20482;-87
2022/01/03 02:08:00;;;;;;;15.05;3.50;;;8.20;99.90;;;;;;4998710;28;20767;-87
2022/01/03 02:10:34;;;;;;;23.88;4.00;;;8.20;99.90;;;;;;4982375;28;20481;-86
2022/01/03 02:13:01;;;;;;;19.80;3.38;;;8.20;99.90;;;;;;4986914;28;20065;-88
2022/01/03 02:15:27;;;;;;;19.30;3.92;;;8.20;99.90;;;;;;5002060;28;20042;-86
2022/01/03 02:17:52;;;;;;;;;;;8.20;99.90;;;;;;5004107;28;20459;-87
2022/01/03 02:20:21;;;;;;;22.58;3.58;;;8.20;99.90;;;;;;4984783;28;19973;-86
2022/01/03 02:22:48;;;;;;;18.27;3.90;;;8.20;99.90;;;;;;4980817;28;20050;-87
2022/01/03 02:25:17;;;;;;;18.20;3.58;;;8.20;99.90;;;;;;4980916;28;20083;-88
2022/01/03 02:27:44;;;;;;;22.25;4.22;;;8.20;99.90;;;;;;4985171;28;20129;-88
2022/01/03 02:30:13;;;;;;;21.58;3.25;;;8.20;99.90;;;;;;5085105;23;20569;-88
2022/01/03 02:32:39;;;;;;;20.55;4.32;;;8.20;99.90;;;;;;4999693;28;20074;-86
2022/01/03 02:35:09;;;;;;;22.00;3.97;;;8.10;99.90;;;;;;5006581;28;20553;-86
2022/01/03 02:37:39;;;;;;;20.63;3.78;;;9.30;99.90;;;;;;5005423;28;20056;-86
2022/01/03 02:40:07;;;;;;;18.95;3.53;;;8.10;99.90;;;;;;5003184;28;20108;-86
2022/01/03 02:42:36;;;;;;;15.90;4.03;;;8.20;99.90;;;;;;5005205;28;20049;-89
2022/01/03 02:45:09;;;;;;;18.67;3.75;;;8.20;99.90;;;;;;5117704;23;20053;-87
2022/01/03 02:47:37;;;;;;;22.50;3.25;;;8.20;99.90;;;;;;4985929;28;20046;-86
2022/01/03 02:50:05;;;;;;;20.73;3.92;;;8.20;99.90;;;;;;4990125;28;20502;-86
2022/01/03 02:52:33;;;;;;;21.80;3.75;;;8.10;99.90;;;;;;4989269;28;20363;-89
2022/01/03 02:54:58;;;;;;;19.17;3.97;;;8.10;99.90;;;;;;4986834;28;20050;-88
2022/01/03 02:57:24;;;;;;;;;;;8.10;99.90;;;;;;4990269;28;20042;-88
2022/01/03 02:59:57;;;;;;;23.33;4.15;;;8.10;99.90;;;;;;4986015;28;19930;-87
2022/01/03 03:02:25;;;;;;;25.27;4.47;;;8.10;99.90;;;;;;5005823;28;20129;-89
2022/01/03 03:04:55;;;;;;;21.02;4.00;;;8.10;99.90;;;;;;4983061;28;20054;-87
2022/01/03 03:07:23;;;;;;;18.45;3.10;;;8.10;99.90;;;;;;4992466;28;20046;-87
2022/01/03 03:09:49;;;;;;;18.67;4.05;;;8.10;99.90;;;;;;4989453;28;20101;-88
2022/01/03 03:12:15;;;;;;;;;;;8.10;99.90;;;;;;5005840;28;20045;-87
2022/01/03 03:14:41;;;;;;;25.50;4.45;;;8.10;99.90;;;;;;4979391;28;19922;-86
2022/01/03 03:17:06;;;;;;;;;;;8.10;99.90;;;;;;4989716;28;20375;-87
2022/01/03 03:19:32;;;;;;;23.15;3.50;;;8.10;99.90;;;;;;4990064;28;19979;-90
2022/01/03 03:21:58;;;;;;;;;;;8.10;99.90;;;;;;4990537;28;20051;-87
2022/01/03 03:24:23;;;;;;;25.05;5.50;;;9.00;99.90;;;;;;4989691;28;19921;-89
2022/01/03 03:26:49;;;;;;;;;;;8.10;99.90;;;;;;4985691;28;20050;-86
2022/01/03 03:29:14;;;;;;;19.13;3.50;;;8.20;99.90;;;;;;4986824;28;19922;-86
2022/01/03 03:31:40;;;;;;;;;;;8.10;99.90;;;;;;4988383;28;20050;-86
2022/01/03 03:34:06;;;;;;;20.38;4.03;;;8.20;99.90;;;;;;4986966;28;19925;-85
2022/01/03 03:36:31;;;;;;;;;;;8.10;99.90;;;;;;4988421;28;20041;-86
2022/01/03 03:38:57;;;;;;;25.70;3.60;;;8.20;99.90;;;;;;4985693;28;20293;-84
2022/01/03 03:41:22;;;;;;;;;;;8.20;99.90;;;;;;4989082;28;20034;-86
2022/01/03 03:43:48;;;;;;;22.73;3.83;;;8.20;99.90;;;;;;4984261;28;19928;-85
2022/01/03 03:46:14;;;;;;;;;;;8.20;99.90;;;;;;4986496;28;20132;-85
2022/01/03 03:48:40;;;;;;;23.92;3.88;;;8.30;99.90;;;;;;4991244;28;19926;-85
2022/01/03 03:51:05;;;;;;;;;;;8.20;99.90;;;;;;4987231;28;20064;-89
2022/01/03 03:53:31;;;;;;;21.90;3.65;;;8.20;99.90;;;;;;4989105;28;19929;-88
2022/01/03 03:55:57;;;;;;;;;;;8.20;99.90;;;;;;4985833;28;20052;-84
2022/01/03 03:58:22;;;;;;;19.08;3.60;;;8.10;99.90;;;;;;4984309;28;20294;-84
2022/01/03 04:00:48;;;;;;;;;;;8.10;99.90;;;;;;5020088;23;20101;-84
2022/01/03 04:03:13;;;;;;;19.15;4.15;;;8.10;99.90;;;;;;4988760;28;19929;-84
2022/01/03 04:05:39;;;;;;;;;;;8.10;99.90;;;;;;4987315;28;20113;-85
2022/01/03 04:08:14;;;;;;;19.02;3.47;;;8.10;99.90;;;;;;5167874;23;19988;-86
2022/01/03 04:13:54;;;;;;;24.95;3.67;;;8.10;99.90;;;;;;5092121;23;20043;-85
2022/01/03 04:17:06;;;;;;;22.38;3.60;;;7.40;99.90;;;;;;4964981;28;20086;-85
2022/01/03 04:19:32;;;;;;;27.85;3.50;;;7.60;99.90;;;;;;4969951;28;20513;-84
2022/01/03 04:22:32;;;;;;;;;;;7.90;99.90;;;;;;4968584;28;20042;-85
2022/01/03 04:25:53;;;;;;;21.30;3.70;;;7.60;99.90;;;;;;4965572;28;19994;-84
2022/01/03 04:28:38;;;;;;;22.95;3.95;;;9.30;99.90;;;;;;4969133;28;20074;-85
2022/01/03 04:31:05;;;;;;;20.52;3.35;;;7.90;99.90;;;;;;4967056;28;20047;-85
2022/01/03 04:33:31;;;;;;;29.05;6.53;;;8.10;99.90;;;;;;4966173;28;20038;-85
2022/01/03 04:35:57;;;;;;;25.00;4.00;;;8.10;99.90;;;;;;4965231;28;20495;-85
2022/01/03 04:38:22;;;;;;;;;;;8.00;99.90;;;;;;4970436;28;20048;-85
2022/01/03 04:40:48;;;;;;;21.23;3.95;;;8.00;99.90;;;;;;4964282;28;19929;-86
2022/01/03 04:43:13;;;;;;;;;;;8.00;99.90;;;;;;4968308;28;20041;-85
2022/01/03 04:45:39;;;;;;;25.85;3.90;;;8.00;99.90;;;;;;4968058;28;19926;-85
2022/01/03 04:48:05;;;;;;;;;;;8.00;99.90;;;;;;4965909;28;20509;-85
2022/01/03 04:50:30;;;;;;;25.15;4.20;;;8.10;99.90;;;;;;4966468;28;19921;-85
2022/01/03 04:52:56;;;;;;;;;;;8.10;99.90;;;;;;4970075;28;20038;-85
2022/01/03 04:55:21;;;;;;;20.65;3.30;;;8.20;99.90;;;;;;4965002;28;19985;-84
2022/01/03 04:57:47;;;;;;;;;;;8.10;99.90;;;;;;5165183;23;20515;-85
2022/01/03 05:00:13;;;;;;;20.65;4.15;;;8.10;99.90;;;;;;5002811;28;20011;-85
2022/01/03 05:02:39;;;;;;;17.58;3.40;;;8.10;99.90;;;;;;5006674;28;20420;-86
2022/01/03 05:05:08;;;;;;;;;;;8.10;99.90;;;;;;5008082;28;20041;-85
2022/01/03 05:07:34;;;;;;;26.50;4.50;;;7.30;99.90;;;;;;5005358;28;19937;-84
2022/01/03 05:10:00;;;;;;;23.10;4.28;;;8.00;99.90;;;;;;5006014;28;20056;-86
2022/01/03 05:12:28;;;;;;;;;;;8.00;99.90;;;;;;5001642;28;20401;-86
2022/01/03 05:14:54;;;;;;;25.05;4.25;;;9.20;99.90;;;;;;5004442;28;20020;-87
2022/01/03 05:17:19;;;;;;;;;;;8.10;99.90;;;;;;5007136;28;20117;-85
2022/01/03 05:19:45;;;;;;;19.58;4.18;;;8.10;99.90;;;;;;5006691;28;19925;-85
2022/01/03 05:22:13;;;;;;;21.65;4.32;;;8.10;99.90;;;;;;5002719;28;20042;-87
2022/01/03 05:24:39;;;;;;;;;;;8.10;99.90;;;;;;5007587;28;20520;-87
2022/01/03 05:27:07;;;;;;;29.15;5.47;;;8.10;99.90;;;;;;5003505;28;19922;-85
2022/01/03 05:35:08;;;;;;;30.95;4.63;;;7.30;99.90;;;;;;4960812;28;20004;-85
2022/01/03 05:37:34;;;;;;;;;;;8.70;99.90;;;;;;4967815;28;20122;-85
2022/01/03 05:39:59;;;;;;;24.85;3.92;;;8.10;99.90;;;;;;4966945;28;19922;-85
2022/01/03 05:42:25;;;;;;;;;;;8.00;99.90;;;;;;4964891;28;20042;-85
2022/01/03 05:44:59;;;;;;;30.08;4.95;;;8.00;99.90;;;;;;4965849;28;19928;-86
2022/01/03 05:50:01;;;;;;;24.88;5.35;;;8.10;99.90;;;;;;5126175;23;20065;-86
2022/01/03 05:52:26;;;;;;;;;;;8.10;99.90;;;;;;5003610;28;20046;-86
2022/01/03 05:54:56;;;;;;;26.13;4.18;;;8.10;99.90;;;;;;5005591;28;20290;-87
2022/01/03 05:57:22;;;;;;;27.27;4.40;;;8.10;99.90;;;;;;5001382;28;20121;-81
2022/01/03 05:59:47;;;;;;;;;;;8.20;99.90;;;;;;5006860;28;20132;-87
2022/01/03 06:02:13;;;;;;;27.65;5.20;;;8.20;99.90;;;;;;5004421;28;19925;-86
2022/01/03 06:04:54;;;;;;;;;;;8.10;99.90;;;;;;5005850;28;20048;-85
2022/01/03 06:07:21;;;;;;;17.73;3.45;;;8.10;99.90;;;;;;5006862;28;20381;-84
2022/01/03 06:09:47;;;;;;;25.80;5.13;;;8.10;99.90;;;;;;5005305;28;20354;-85
2022/01/03 06:12:14;;;;;;;20.83;4.43;;;8.20;99.90;;;;;;5000067;28;20051;-87
2022/01/03 06:14:40;;;;;;;26.30;3.60;;;8.20;99.90;;;;;;5003037;28;20042;-85
2022/01/03 06:27:49;;;;;;;27.30;4.25;;;9.00;99.90;;;;;;4980383;28;20488;-84
2022/01/03 06:40:59;;;;;;;22.75;3.78;;;9.30;99.90;;;;;;4999143;28;20158;-85
2022/01/03 06:43:48;;;;;;;;;;;8.00;99.90;;;;;;4999111;28;20129;-84
2022/01/03 07:07:21;;;;;;;19.23;3.65;;;7.90;99.90;;;;;;5102338;23;20470;-85
2022/01/03 07:09:47;;;;;;;;;;;8.10;99.90;;;;;;4982373;28;20078;-84
2022/01/03 07:12:16;;;;;;;26.20;4.68;;;8.10;99.90;;;;;;4982663;28;19932;-87
2022/01/03 07:19:59;;;;;;;20.10;4.63;;;8.20;99.90;;;;;;4981625;28;19921;-85
2022/01/03 07:22:26;;;;;;;23.90;5.70;;;8.20;99.90;;;;;;4982884;28;20054;-86
2022/01/03 07:24:55;;;;;;;31.25;4.60;;;8.20;99.90;;;;;;4982209;28;20100;-86
2022/01/03 07:40:06;;;;;;;31.95;4.65;;;7.50;99.90;;;;;;5003590;28;20144;-88
2022/01/03 07:56:57;;;;;;;31.55;5.22;;;7.90;99.90;;;;;;4958758;28;20053;-85
2022/01/03 07:59:41;;;;;;;;;;;7.90;99.90;;;;;;4965164;28;20038;-85
2022/01/03 08:09:50;;;;;;;29.70;5.15;;;8.10;99.90;;;;;;4921078;29;20042;-86
2022/01/03 08:12:16;;;;;;;22.30;6.07;;;8.00;99.90;;;;;;4951387;28;20053;-85
2022/01/03 08:14:43;;;;;;;30.90;3.90;;;8.10;99.90;;;;;;4984551;28;20104;-85
2022/01/03 08:17:08;;;;;;;17.92;4.55;;;8.20;99.90;;;;;;4984245;28;20046;-86
2022/01/03 08:19:34;;;;;;;;;;;8.20;99.90;;;;;;4985567;28;20510;-84
2022/01/03 08:22:07;;;;;;;33.55;5.05;;;8.30;99.90;;;;;;5289448;23;20383;-85
2022/01/03 08:24:39;;;;;;;20.60;4.20;;;8.10;99.90;;;;;;4966861;28;20039;-85
2022/01/03 08:31:23;;;;;;;21.02;3.97;;;8.50;99.90;;;;;;4939631;29;20044;-85
2022/01/03 08:33:55;;;;;;;21.85;4.38;;;8.60;99.90;;;;;;4877603;29;20574;-84
2022/01/03 08:36:21;;;;;;;23.42;4.22;;;8.80;99.90;;;;;;4926174;28;20051;-84
2022/01/03 09:03:19;;;;;;;24.67;3.78;;;8.90;99.90;;;;;;5002619;28;20514;-87
2022/01/03 09:05:45;;;;;;;22.73;3.85;;;9.30;99.90;;;;;;5004930;28;20063;-87
2022/01/03 09:47:56;;;;;;;20.05;3.28;;;12.20;99.90;;;;;;5241617;23;20109;-92
2022/01/03 09:50:22;;;;;;;;;;;12.50;99.90;;;;;;4985266;23;20046;-86
2022/01/03 09:52:51;;;;;;;19.75;4.22;;;13.90;99.90;;;;;;4990806;28;19968;-83
2022/01/03 09:55:22;;;;;;;18.02;4.18;;;13.00;99.90;;;;;;4986457;28;20478;-84
2022/01/03 09:57:48;;;;;;;17.75;4.53;;;13.10;99.90;;;;;;4982937;28;20453;-83
2022/01/03 10:00:22;;;;;;;22.60;4.18;;;14.20;99.90;;;;;;4985104;28;20050;-81
2022/01/03 10:02:50;;;;;;;23.55;4.10;;;13.60;99.90;;;;;;4985649;28;20042;-84
2022/01/03 10:05:20;;;;;;;19.58;3.65;;;13.60;99.90;;;;;;4981529;28;20409;-81
2022/01/03 10:07:46;;;;;;;17.23;3.35;;;13.60;99.90;;;;;;4985963;28;20050;-78
2022/01/03 10:10:12;;;;;;;22.00;4.65;;;13.60;99.90;;;;;;4982887;28;20038;-81
2022/01/03 10:12:41;;;;;;;19.08;3.72;;;13.40;99.90;;;;;;4985970;28;20143;-78
2022/01/03 10:15:11;;;;;;;16.00;4.05;;;13.40;99.90;;;;;;4981534;28;20136;-79
2022/01/03 10:17:39;;;;;;;18.85;3.72;;;13.40;99.90;;;;;;4980135;28;20081;-76
2022/01/03 10:20:09;;;;;;;19.80;3.88;;;13.40;99.90;;;;;;4979447;28;20050;-77
2022/01/03 10:22:35;;;;;;;14.48;3.13;;;13.60;99.90;;;;;;4985600;28;20539;-77
2022/01/03 10:25:12;;;;;;;19.88;3.63;;;14.00;99.90;;;;;;4983179;28;20043;-76
2022/01/03 10:27:56;;;;;;;15.77;3.78;;;13.70;99.90;;;;;;5008980;28;20054;-78
2022/01/03 10:30:31;;;;;;;18.40;4.07;;;13.80;99.90;;;;;;4997562;28;20049;-77
2022/01/03 10:32:58;;;;;;;22.95;7.28;;;14.00;99.90;;;;;;4982378;28;20042;-78
2022/01/03 10:35:24;;;;;;;17.00;3.58;;;14.60;99.90;;;;;;4979625;28;20050;-78
2022/01/03 10:37:50;;;;;;;19.60;4.13;;;14.20;99.90;;;;;;4997376;28;21343;-79
2022/01/03 10:40:27;;;;;;;17.52;4.65;;;14.30;99.90;;;;;;4979824;28;20057;-81
2022/01/03 10:42:58;;;;;;;18.05;4.47;;;14.40;99.90;;;;;;4982229;28;20397;-81
2022/01/03 10:45:33;;;;;;;16.42;3.95;;;14.70;99.90;;;;;;4980114;28;20393;-79
2022/01/03 10:48:01;;;;;;;17.75;4.05;;;14.70;99.90;;;;;;4982514;28;20152;-82
2022/01/03 10:50:28;;;;;;;17.35;3.78;;;14.90;99.90;;;;;;4994887;28;20050;-80
2022/01/03 10:52:55;;;;;;;18.80;3.88;;;15.00;99.90;;;;;;4983971;28;20184;-81
2022/01/03 10:55:35;;;;;;;19.95;4.20;;;15.00;99.90;;;;;;4982918;28;20143;-81
2022/01/03 10:58:04;;;;;;;17.95;4.40;;;14.90;99.90;;;;;;4978974;28;20042;-81
2022/01/03 11:00:32;;;;;;;20.20;3.95;;;15.00;99.90;;;;;;4979482;28;20045;-82
2022/01/03 11:03:36;;;;;;;19.85;4.82;;;15.20;99.90;;;;;;4982196;28;20046;-79
2022/01/03 11:06:25;;;;;;;14.80;2.90;;;15.20;99.90;;;;;;4995258;28;20050;-79
2022/01/03 11:11:52;;;;;;;16.30;3.47;;;15.20;99.90;;;;;;4934592;29;20502;-81
2022/01/03 11:14:33;;;;;;;16.40;3.45;;;15.40;99.90;;;;;;4971852;28;20137;-79
2022/01/03 11:17:02;;;;;;;19.27;3.45;;;15.30;99.90;;;;;;4986689;28;20077;-80
2022/01/03 11:19:35;;;;;;;17.55;3.88;;;15.30;99.90;;;;;;4984486;28;20048;-81
2022/01/03 11:22:01;;;;;;;15.65;4.07;;;15.20;99.90;;;;;;4989346;28;20042;-80
2022/01/03 11:24:26;;;;;;;17.60;3.55;;;15.20;99.90;;;;;;5003632;28;20042;-83
2022/01/03 11:26:52;;;;;;;19.45;3.80;;;15.20;99.90;;;;;;5005811;28;20041;-82
2022/01/03 11:29:18;;;;;;;16.90;3.15;;;15.10;99.90;;;;;;5006644;28;20478;-80
2022/01/03 11:31:44;;;;;;;19.73;3.45;;;15.20;99.90;;;;;;4981164;28;20042;-82
2022/01/03 11:34:15;;;;;;;14.80;3.90;;;15.00;99.90;;;;;;4986655;28;20381;-80
2022/01/03 11:36:41;;;;;;;18.45;3.85;;;15.00;99.90;;;;;;5007346;28;21432;-81
2022/01/03 11:39:12;;;;;;;15.90;3.80;;;14.70;99.90;;;;;;4981965;28;20037;-80
2022/01/03 11:41:40;;;;;;;17.88;3.50;;;14.90;99.90;;;;;;4987740;28;20125;-81
2022/01/03 11:44:07;;;;;;;13.27;3.45;;;13.90;99.90;;;;;;4987775;28;20405;-78
2022/01/03 11:49:52;;;;;;;17.30;3.95;;;12.70;99.90;;;;;;5162426;23;20049;-83
2022/01/03 12:32:01;;;;;;;17.63;4.20;;;13.90;99.90;;;;;;4931454;29;20530;-85
2022/01/03 12:35:24;;;;;;;16.38;3.78;;;14.30;99.90;;;;;;5060288;23;20468;-83
2022/01/03 12:40:54;;;;;;;16.25;2.67;;;13.00;99.90;;;;;;5381076;23;20069;-75
2022/01/03 12:43:40;;;;;;;18.33;4.18;;;14.80;99.90;;;;;;4983975;28;20096;-77
2022/01/03 12:46:21;;;;;;;14.82;3.95;;;14.10;99.90;;;;;;4989407;28;20046;-74
2022/01/03 12:48:46;;;;;;;19.75;4.53;;;14.10;99.90;;;;;;4988963;28;20078;-73
2022/01/03 12:51:15;;;;;;;17.90;3.55;;;14.20;99.90;;;;;;4986980;28;20070;-76
2022/01/03 12:53:48;;;;;;;19.95;4.82;;;13.90;99.90;;;;;;4991755;28;20038;-85
2022/01/03 13:10:22;;;;;;;20.30;3.55;;;12.50;99.90;;;;;;5004741;28;20085;-75
2022/01/03 13:12:54;;;;;;;15.82;3.90;;;13.00;99.90;;;;;;4985650;28;20564;-76
2022/01/03 13:15:22;;;;;;;18.45;4.03;;;12.90;99.90;;;;;;4985723;28;20556;-80
2022/01/03 13:18:14;;;;;;;16.48;3.60;;;13.20;99.90;;;;;;4989294;28;20084;-77
2022/01/03 13:20:54;;;;;;;18.17;4.10;;;12.40;99.90;;;;;;5001077;28;20054;-75
2022/01/03 13:24:07;;;;;;;17.70;3.80;;;12.10;99.90;;;;;;5165241;23;20010;-79
2022/01/03 13:26:50;;;;;;;19.67;3.95;;;12.30;99.90;;;;;;4981940;28;20080;-75
2022/01/03 13:37:16;;;;;;;18.00;4.00;;;13.40;99.90;;;;;;5000304;28;20048;-74
2022/01/03 13:44:21;;;;;;;25.50;4.32;;;11.40;99.90;;;;;;5000492;28;20037;-75
2022/01/03 13:50:30;;;;;;;22.13;4.72;;;10.70;99.90;;;;;;4985616;28;20050;-78
2022/01/03 13:53:45;;;;;;;22.30;4.38;;;12.30;99.90;;;;;;4987395;28;20049;-78
2022/01/03 13:56:45;;;;;;;24.50;4.82;;;9.70;99.90;;;;;;5004523;28;20034;-79
2022/01/03 13:59:11;;;;;;;21.67;4.22;;;10.50;99.90;;;;;;4983038;28;20056;-81
2022/01/03 14:01:36;;;;;;;;;;;10.20;99.90;;;;;;5003205;28;20046;-80
2022/01/03 14:04:02;;;;;;;20.52;4.00;;;10.20;99.90;;;;;;5000273;28;20445;-80
2022/01/03 14:06:28;;;;;;;32.42;5.93;;;10.20;99.90;;;;;;4987514;28;20584;-80
2022/01/03 14:08:53;;;;;;;;;;;10.10;99.90;;;;;;4980915;28;20157;-78
2022/01/03 14:11:24;;;;;;;21.65;5.70;;;10.00;99.90;;;;;;5000965;28;19918;-79
2022/01/03 14:13:50;;;;;;;24.05;5.80;;;10.00;99.90;;;;;;4985811;28;20045;-78
2022/01/03 14:16:17;;;;;;;20.33;5.25;;;10.30;99.90;;;;;;4984767;28;20045;-78
2022/01/03 14:18:55;;;;;;;20.92;4.57;;;10.00;99.90;;;;;;4981878;28;20090;-78
2022/01/03 14:21:27;;;;;;;22.45;4.13;;;10.00;99.90;;;;;;4983203;28;20045;-78
2022/01/03 14:23:58;;;;;;;22.95;4.35;;;9.80;99.90;;;;;;4983576;28;20108;-78
2022/01/03 14:26:29;;;;;;;25.65;4.70;;;9.80;99.90;;;;;;4984495;28;20478;-78
2022/01/03 14:29:11;;;;;;;24.95;4.93;;;9.80;99.90;;;;;;4983813;28;20132;-77
2022/01/03 14:31:47;;;;;;;20.60;5.07;;;9.60;99.90;;;;;;4983509;28;20054;-79
2022/01/03 14:34:23;;;;;;;20.67;4.07;;;9.60;99.90;;;;;;4985375;28;20140;-78
2022/01/03 14:36:49;;;;;;;22.90;4.50;;;9.60;99.90;;;;;;4991650;28;20045;-79
2022/01/03 14:39:15;;;;;;;21.35;4.53;;;9.50;99.90;;;;;;4990063;28;20042;-81
2022/01/03 14:41:40;;;;;;;;;;;9.40;99.90;;;;;;4992004;28;20478;-79
2022/01/03 14:44:12;;;;;;;28.70;4.38;;;9.50;99.90;;;;;;4991515;28;19917;-79
2022/01/03 14:46:40;;;;;;;26.45;3.95;;;9.40;99.90;;;;;;4986457;28;20088;-82
2022/01/03 15:12:40;;;;;;;19.60;3.55;;;9.10;99.90;;;;;;5597016;23;20061;-77
2022/01/03 15:15:10;;;;;;;21.98;3.80;;;10.20;99.90;;;;;;4988013;28;20109;-80
2022/01/03 15:17:39;;;;;;;25.10;4.03;;;9.00;99.90;;;;;;4985396;28;20137;-77
2022/01/03 15:20:11;;;;;;;20.20;3.80;;;8.90;99.90;;;;;;4986945;28;20043;-76
2022/01/03 15:22:37;;;;;;;18.25;3.35;;;8.90;99.90;;;;;;5003378;28;20057;-77
2022/01/03 15:25:03;;;;;;;;;;;8.90;99.90;;;;;;4985045;28;20046;-80
2022/01/03 15:27:28;;;;;;;24.98;4.03;;;8.90;99.90;;;;;;4986068;28;19925;-76
2022/01/03 15:29:54;;;;;;;;;;;9.60;99.90;;;;;;5565294;23;20046;-76
2022/01/03 15:40:59;;;;;;;23.30;3.50;;;7.90;99.90;;;;;;5013596;28;20056;-80
2022/01/03 15:43:50;;;;;;;18.50;4.05;;;8.60;99.90;;;;;;4987532;28;20046;-75
2022/01/03 15:55:58;;;;;;;15.98;3.55;;;8.30;99.90;;;;;;4982798;28;20046;-75
2022/01/03 16:02:21;;;;;;;14.50;3.17;;;8.50;99.90;;;;;;4922950;28;20002;-77
2022/01/03 16:08:03;;;;;;;17.88;5.15;;;9.40;99.90;;;;;;5011204;28;20044;-76
2022/01/03 16:10:32;;;;;;;25.98;5.57;;;8.20;99.90;;;;;;4994742;28;20049;-78
2022/01/03 16:12:58;;;;;;;17.55;3.95;;;8.30;99.90;;;;;;4994792;28;20038;-77
2022/01/03 16:15:24;;;;;;;16.20;3.10;;;8.20;99.90;;;;;;4994046;28;20406;-78
2022/01/03 16:17:50;;;;;;;17.70;3.45;;;8.20;99.90;;;;;;4995686;28;20140;-79
2022/01/03 16:20:16;;;;;;;;;;;8.30;99.90;;;;;;4995573;28;20552;-79
2022/01/03 16:22:42;;;;;;;22.75;3.45;;;8.20;99.90;;;;;;4995493;28;20109;-77
2022/01/03 16:25:11;;;;;;;17.40;3.47;;;8.20;99.90;;;;;;4995530;28;20057;-77
2022/01/03 16:34:56;;;;;;;19.63;3.97;;;8.10;99.90;;;;;;4981099;28;20045;-79
2022/01/03 16:38:13;;;;;;;14.98;3.35;;;6.90;99.90;;;;;;4958294;28;20042;-81
2022/01/03 16:41:48;;;;;;;24.23;4.78;;;8.20;99.90;;;;;;4966408;28;20065;-81
2022/01/03 17:06:37;;;;;;;27.98;5.78;;;6.90;99.90;;;;;;4985576;28;20069;-83
2022/01/03 17:20:32;;;;;;;17.85;3.95;;;8.70;99.90;;;;;;4919437;29;20175;-74
2022/01/03 17:58:47;;;;;;;15.88;3.10;;;7.50;99.90;;;;;;5042023;23;20683;-85
2022/01/03 18:17:50;;;;;;;15.38;3.17;;;7.60;99.90;;;;;;5378916;23;20754;-85
2022/01/03 18:20:16;;;;;;;;;;;7.70;99.90;;;;;;4976945;28;20046;-85
2022/01/03 18:26:22;;;;;;;11.95;3.83;;;6.60;99.90;;;;;;5951490;23;20467;-90
2022/01/03 18:28:51;;;;;;;17.08;3.53;;;7.50;99.90;;;;;;4979220;28;20058;-87
2022/01/03 18:49:46;;;;;;;16.05;3.40;;;7.40;99.90;;;;;;6131555;23;20173;-90
2022/01/03 18:52:12;;;;;;;19.73;3.35;;;7.40;99.90;;;;;;4979483;28;20137;-84
2022/01/03 18:54:37;;;;;;;;;;;7.40;99.90;;;;;;4977399;28;20549;-88
2022/01/03 18:57:06;;;;;;;14.50;3.22;;;7.40;99.90;;;;;;4973110;28;20017;-84
2022/01/03 18:59:36;;;;;;;16.38;3.33;;;7.40;99.90;;;;;;4977053;28;20145;-87
2022/01/03 19:02:02;;;;;;;11.73;2.53;;;7.40;99.90;;;;;;4982487;28;20057;-86
2022/01/03 19:04:27;;;;;;;;;;;7.40;99.90;;;;;;4985011;28;20038;-86
2022/01/03 19:06:55;;;;;;;15.85;3.35;;;7.40;99.90;;;;;;4980328;28;19998;-88
2022/01/03 19:32:07;;;;;;;22.17;3.30;;;6.20;99.90;;;;;;4926881;29;20408;-83
2022/01/03 19:50:07;;;;;;;23.40;4.32;;;8.80;99.90;;;;;;4921098;29;20040;-88
2022/01/03 19:53:12;;;;;;;18.73;4.70;;;8.00;99.90;;;;;;4889759;29;20113;-83
2022/01/03 20:32:26;;;;;;;21.95;3.70;;;6.60;99.90;;;;;;5005052;28;20397;-79
2022/01/03 20:41:09;;;;;;;16.20;3.65;;;7.80;99.90;;;;;;5002441;23;20118;-81
2022/01/03 20:46:45;;;;;;;15.43;3.28;;;7.80;99.90;;;;;;6045258;23;20045;-80
2022/01/03 21:41:04;;;;;;;12.40;3.05;;;7.40;99.90;;;;;;6139285;23;20013;31
2022/01/03 21:43:30;;;;;;;16.17;2.80;;;7.30;99.90;;;;;;4924409;28;20132;-86
2022/01/03 21:45:57;;;;;;;12.73;3.28;;;8.00;99.90;;;;;;4928726;29;20153;-84
2022/01/03 21:48:29;;;;;;;18.77;2.88;;;7.40;99.90;;;;;;4922520;29;20054;-84
2022/01/03 21:51:02;;;;;;;16.55;2.92;;;7.40;99.90;;;;;;4921563;29;20050;-83
2022/01/03 21:53:31;;;;;;;13.02;3.42;;;7.30;99.90;;;;;;4921157;29;20059;-85
2022/01/03 21:56:00;;;;;;;14.35;3.05;;;7.40;99.90;;;;;;4924806;29;20050;-83
2022/01/03 21:58:27;;;;;;;15.40;3.58;;;7.30;99.90;;;;;;4928144;29;20047;-83
2022/01/03 22:00:53;;;;;;;16.13;4.13;;;7.30;99.90;;;;;;4922729;29;20052;-87
2022/01/03 22:03:19;;;;;;;17.17;3.00;;;7.30;99.90;;;;;;4929427;29;20043;-90
2022/01/03 22:05:45;;;;;;;;;;;7.30;99.90;;;;;;4919517;29;20047;-84
